sensor_id;sensor_type;location;lat;lon;timestamp;pressure;altitude;pressure_sealevel;temperature;humidity
20013;BME280;10167;42.852;23.042;2023-02-25T00:00:11;94288.41;;;5.31;100.00
20013;BME280;10167;42.852;23.042;2023-02-25T00:02:46;94287.38;;;5.32;100.00
20013;BME280;10167;42.852;23.042;2023-02-25T00:05:17;94286.88;;;5.42;100.00
20013;BME280;10167;42.852;23.042;2023-02-25T00:07:46;94282.28;;;5.37;100.00
20013;BME280;10167;42.852;23.042;2023-02-25T00:10:17;94289.84;;;5.45;100.00
20013;BME280;10167;42.852;23.042;2023-02-25T00:12:46;94283.16;;;5.50;100.00
20013;BME280;10167;42.852;23.042;2023-02-25T00:15:15;94280.00;;;5.59;100.00
20013;BME280;10167;42.852;23.042;2023-02-25T00:17:44;94270.59;;;5.70;100.00
20013;BME280;10167;42.852;23.042;2023-02-25T00:20:16;94269.69;;;5.76;100.00
20013;BME280;10167;42.852;23.042;2023-02-25T00:22:47;94273.03;;;5.83;100.00
20013;BME280;10167;42.852;23.042;2023-02-25T00:25:18;94282.69;;;5.89;100.00
20013;BME280;10167;42.852;23.042;2023-02-25T00:27:47;94273.94;;;5.95;100.00
20013;BME280;10167;42.852;23.042;2023-02-25T00:30:16;94271.72;;;5.92;100.00
20013;BME280;10167;42.852;23.042;2023-02-25T00:32:45;94275.97;;;5.93;100.00
20013;BME280;10167;42.852;23.042;2023-02-25T00:35:14;94276.63;;;5.89;100.00
20013;BME280;10167;42.852;23.042;2023-02-25T00:37:43;94267.94;;;5.88;100.00
20013;BME280;10167;42.852;23.042;2023-02-25T00:40:12;94270.94;;;5.92;100.00
20013;BME280;10167;42.852;23.042;2023-02-25T00:42:43;94268.44;;;5.97;100.00
20013;BME280;10167;42.852;23.042;2023-02-25T00:45:12;94254.03;;;5.99;100.00
20013;BME280;10167;42.852;23.042;2023-02-25T00:47:41;94247.97;;;5.99;100.00
20013;BME280;10167;42.852;23.042;2023-02-25T00:50:11;94235.66;;;5.99;100.00
20013;BME280;10167;42.852;23.042;2023-02-25T00:52:40;94243.09;;;6.02;100.00
20013;BME280;10167;42.852;23.042;2023-02-25T00:55:09;94231.78;;;6.02;100.00
20013;BME280;10167;42.852;23.042;2023-02-25T00:57:38;94229.88;;;6.09;100.00
20013;BME280;10167;42.852;23.042;2023-02-25T01:00:12;94228.38;;;6.13;100.00
20013;BME280;10167;42.852;23.042;2023-02-25T01:02:44;94232.53;;;6.21;100.00
20013;BME280;10167;42.852;23.042;2023-02-25T01:05:14;94230.81;;;6.26;100.00
20013;BME280;10167;42.852;23.042;2023-02-25T01:07:43;94226.00;;;6.23;100.00
20013;BME280;10167;42.852;23.042;2023-02-25T01:10:13;94222.91;;;6.26;100.00
20013;BME280;10167;42.852;23.042;2023-02-25T01:12:42;94217.88;;;6.25;100.00
20013;BME280;10167;42.852;23.042;2023-02-25T01:15:13;94218.69;;;6.25;100.00
20013;BME280;10167;42.852;23.042;2023-02-25T01:17:42;94220.50;;;6.25;100.00
20013;BME280;10167;42.852;23.042;2023-02-25T01:20:11;94210.44;;;6.22;100.00
20013;BME280;10167;42.852;23.042;2023-02-25T01:22:40;94217.41;;;6.16;100.00
20013;BME280;10167;42.852;23.042;2023-02-25T01:25:11;94218.44;;;6.15;100.00
20013;BME280;10167;42.852;23.042;2023-02-25T01:27:42;94218.44;;;6.15;100.00
20013;BME280;10167;42.852;23.042;2023-02-25T01:30:13;94223.25;;;6.18;100.00
20013;BME280;10167;42.852;23.042;2023-02-25T01:32:42;94216.03;;;6.13;100.00
20013;BME280;10167;42.852;23.042;2023-02-25T01:35:11;94206.88;;;6.04;100.00
20013;BME280;10167;42.852;23.042;2023-02-25T01:37:40;94201.75;;;6.09;100.00
20013;BME280;10167;42.852;23.042;2023-02-25T01:40:13;94209.28;;;6.06;100.00
20013;BME280;10167;42.852;23.042;2023-02-25T01:42:44;94202.31;;;6.11;100.00
20013;BME280;10167;42.852;23.042;2023-02-25T01:45:28;94199.34;;;6.08;100.00
20013;BME280;10167;42.852;23.042;2023-02-25T01:48:05;94204.91;;;6.00;100.00
20013;BME280;10167;42.852;23.042;2023-02-25T01:50:43;94197.75;;;6.07;100.00
20013;BME280;10167;42.852;23.042;2023-02-25T01:53:17;94199.88;;;5.98;100.00
20013;BME280;10167;42.852;23.042;2023-02-25T01:55:47;94201.19;;;6.07;100.00
20013;BME280;10167;42.852;23.042;2023-02-25T01:58:16;94204.09;;;5.99;100.00
20013;BME280;10167;42.852;23.042;2023-02-25T02:00:48;94205.06;;;6.05;100.00
20013;BME280;10167;42.852;23.042;2023-02-25T02:03:24;94202.53;;;6.10;100.00
20013;BME280;10167;42.852;23.042;2023-02-25T02:06:00;94193.63;;;6.11;100.00
20013;BME280;10167;42.852;23.042;2023-02-25T02:08:32;94188.72;;;6.14;100.00
20013;BME280;10167;42.852;23.042;2023-02-25T02:11:02;94181.53;;;6.22;100.00
20013;BME280;10167;42.852;23.042;2023-02-25T02:13:34;94190.00;;;6.24;100.00
20013;BME280;10167;42.852;23.042;2023-02-25T02:16:17;94175.47;;;6.21;100.00
20013;BME280;10167;42.852;23.042;2023-02-25T02:18:51;94178.69;;;6.23;100.00
20013;BME280;10167;42.852;23.042;2023-02-25T02:21:42;94183.34;;;6.21;100.00
20013;BME280;10167;42.852;23.042;2023-02-25T02:24:50;94169.16;;;6.10;100.00
20013;BME280;10167;42.852;23.042;2023-02-25T02:27:32;94157.63;;;6.11;100.00
20013;BME280;10167;42.852;23.042;2023-02-25T02:30:36;94155.34;;;6.15;100.00
20013;BME280;10167;42.852;23.042;2023-02-25T02:33:13;94149.75;;;6.11;100.00
20013;BME280;10167;42.852;23.042;2023-02-25T02:35:50;94146.00;;;6.07;100.00
20013;BME280;10167;42.852;23.042;2023-02-25T02:38:30;94144.25;;;6.13;100.00
20013;BME280;10167;42.852;23.042;2023-02-25T02:41:08;94141.53;;;6.08;100.00
20013;BME280;10167;42.852;23.042;2023-02-25T02:43:41;94144.97;;;6.08;100.00
20013;BME280;10167;42.852;23.042;2023-02-25T02:46:18;94138.53;;;5.93;100.00
20013;BME280;10167;42.852;23.042;2023-02-25T02:48:53;94143.81;;;6.04;100.00
20013;BME280;10167;42.852;23.042;2023-02-25T02:51:30;94140.03;;;6.00;100.00
20013;BME280;10167;42.852;23.042;2023-02-25T02:54:04;94149.19;;;5.98;100.00
20013;BME280;10167;42.852;23.042;2023-02-25T02:56:35;94140.34;;;5.92;100.00
20013;BME280;10167;42.852;23.042;2023-02-25T02:59:09;94144.69;;;5.98;100.00
20013;BME280;10167;42.852;23.042;2023-02-25T03:01:43;94141.28;;;5.98;100.00
20013;BME280;10167;42.852;23.042;2023-02-25T03:04:19;94140.44;;;5.86;100.00
20013;BME280;10167;42.852;23.042;2023-02-25T03:06:52;94138.97;;;5.90;100.00
20013;BME280;10167;42.852;23.042;2023-02-25T03:09:27;94145.34;;;5.82;100.00
20013;BME280;10167;42.852;23.042;2023-02-25T03:11:59;94141.31;;;5.68;100.00
20013;BME280;10167;42.852;23.042;2023-02-25T03:14:32;94139.22;;;5.58;100.00
20013;BME280;10167;42.852;23.042;2023-02-25T03:17:05;94143.44;;;5.59;100.00
20013;BME280;10167;42.852;23.042;2023-02-25T03:19:39;94139.59;;;5.62;100.00
20013;BME280;10167;42.852;23.042;2023-02-25T03:22:13;94131.94;;;5.60;100.00
20013;BME280;10167;42.852;23.042;2023-02-25T03:24:49;94132.91;;;5.47;100.00
20013;BME280;10167;42.852;23.042;2023-02-25T03:27:26;94146.06;;;5.59;100.00
20013;BME280;10167;42.852;23.042;2023-02-25T03:30:06;94147.31;;;5.57;100.00
20013;BME280;10167;42.852;23.042;2023-02-25T03:32:41;94142.19;;;5.50;100.00
20013;BME280;10167;42.852;23.042;2023-02-25T03:35:14;94135.78;;;5.58;100.00
20013;BME280;10167;42.852;23.042;2023-02-25T03:37:49;94139.66;;;5.55;100.00
20013;BME280;10167;42.852;23.042;2023-02-25T03:40:35;94137.19;;;5.60;100.00
20013;BME280;10167;42.852;23.042;2023-02-25T03:43:09;94137.53;;;5.64;100.00
20013;BME280;10167;42.852;23.042;2023-02-25T03:45:42;94129.56;;;5.70;100.00
20013;BME280;10167;42.852;23.042;2023-02-25T03:48:15;94143.94;;;5.68;100.00
20013;BME280;10167;42.852;23.042;2023-02-25T03:50:51;94138.66;;;5.68;100.00
20013;BME280;10167;42.852;23.042;2023-02-25T03:53:22;94120.97;;;5.63;100.00
20013;BME280;10167;42.852;23.042;2023-02-25T03:56:08;94127.59;;;5.66;100.00
20013;BME280;10167;42.852;23.042;2023-02-25T03:58:41;94121.72;;;5.40;100.00
20013;BME280;10167;42.852;23.042;2023-02-25T04:01:13;94122.03;;;5.44;100.00
20013;BME280;10167;42.852;23.042;2023-02-25T04:03:43;94126.06;;;5.46;100.00
20013;BME280;10167;42.852;23.042;2023-02-25T04:06:19;94128.69;;;5.17;100.00
20013;BME280;10167;42.852;23.042;2023-02-25T04:08:49;94140.75;;;5.36;100.00
20013;BME280;10167;42.852;23.042;2023-02-25T04:11:19;94124.25;;;5.17;100.00
20013;BME280;10167;42.852;23.042;2023-02-25T04:13:48;94115.94;;;5.32;100.00
20013;BME280;10167;42.852;23.042;2023-02-25T04:16:18;94103.63;;;5.32;100.00
20013;BME280;10167;42.852;23.042;2023-02-25T04:18:47;94112.22;;;5.39;100.00
20013;BME280;10167;42.852;23.042;2023-02-25T04:21:27;94102.94;;;5.25;100.00
20013;BME280;10167;42.852;23.042;2023-02-25T04:23:58;94105.41;;;5.20;100.00
20013;BME280;10167;42.852;23.042;2023-02-25T04:26:27;94098.72;;;5.24;100.00
20013;BME280;10167;42.852;23.042;2023-02-25T04:28:57;94102.38;;;5.35;100.00
20013;BME280;10167;42.852;23.042;2023-02-25T04:31:26;94096.09;;;5.24;100.00
20013;BME280;10167;42.852;23.042;2023-02-25T04:33:55;94094.66;;;5.40;100.00
20013;BME280;10167;42.852;23.042;2023-02-25T04:36:27;94085.75;;;5.41;100.00
20013;BME280;10167;42.852;23.042;2023-02-25T04:39:00;94097.41;;;5.45;100.00
20013;BME280;10167;42.852;23.042;2023-02-25T04:41:31;94090.72;;;5.31;100.00
20013;BME280;10167;42.852;23.042;2023-02-25T04:44:01;94082.09;;;5.42;100.00
20013;BME280;10167;42.852;23.042;2023-02-25T04:46:32;94082.84;;;5.31;100.00
20013;BME280;10167;42.852;23.042;2023-02-25T04:49:02;94078.75;;;5.35;100.00
20013;BME280;10167;42.852;23.042;2023-02-25T04:51:33;94079.19;;;5.32;100.00
20013;BME280;10167;42.852;23.042;2023-02-25T04:54:03;94088.13;;;5.42;100.00
20013;BME280;10167;42.852;23.042;2023-02-25T04:56:32;94075.91;;;5.36;100.00
20013;BME280;10167;42.852;23.042;2023-02-25T04:59:01;94089.75;;;5.43;100.00
20013;BME280;10167;42.852;23.042;2023-02-25T05:01:30;94088.13;;;5.42;100.00
20013;BME280;10167;42.852;23.042;2023-02-25T05:04:00;94083.09;;;5.29;100.00
20013;BME280;10167;42.852;23.042;2023-02-25T05:06:29;94086.63;;;5.35;100.00
20013;BME280;10167;42.852;23.042;2023-02-25T05:09:00;94080.72;;;5.39;100.00
20013;BME280;10167;42.852;23.042;2023-02-25T05:11:29;94079.97;;;5.51;100.00
20013;BME280;10167;42.852;23.042;2023-02-25T05:13:59;94087.16;;;5.55;100.00
20013;BME280;10167;42.852;23.042;2023-02-25T05:16:28;94091.34;;;5.44;100.00
20013;BME280;10167;42.852;23.042;2023-02-25T05:18:57;94094.94;;;5.62;100.00
20013;BME280;10167;42.852;23.042;2023-02-25T05:21:29;94092.06;;;5.52;100.00
20013;BME280;10167;42.852;23.042;2023-02-25T05:24:00;94086.69;;;5.58;100.00
20013;BME280;10167;42.852;23.042;2023-02-25T05:26:29;94102.34;;;5.65;100.00
20013;BME280;10167;42.852;23.042;2023-02-25T05:28:58;94093.81;;;5.69;100.00
20013;BME280;10167;42.852;23.042;2023-02-25T05:31:27;94100.78;;;5.75;100.00
20013;BME280;10167;42.852;23.042;2023-02-25T05:33:56;94109.59;;;5.81;100.00
20013;BME280;10167;42.852;23.042;2023-02-25T05:36:26;94105.63;;;5.90;100.00
20013;BME280;10167;42.852;23.042;2023-02-25T05:38:58;94107.69;;;6.00;100.00
20013;BME280;10167;42.852;23.042;2023-02-25T05:41:31;94109.63;;;5.93;100.00
20013;BME280;10167;42.852;23.042;2023-02-25T05:44:01;94097.53;;;6.03;100.00
20013;BME280;10167;42.852;23.042;2023-02-25T05:46:32;94105.66;;;6.13;100.00
20013;BME280;10167;42.852;23.042;2023-02-25T05:49:02;94105.41;;;6.27;100.00
20013;BME280;10167;42.852;23.042;2023-02-25T05:51:31;94112.28;;;6.28;100.00
20013;BME280;10167;42.852;23.042;2023-02-25T05:54:00;94116.72;;;6.39;100.00
20013;BME280;10167;42.852;23.042;2023-02-25T05:56:30;94114.19;;;6.44;100.00
20013;BME280;10167;42.852;23.042;2023-02-25T05:58:59;94112.28;;;6.51;100.00
20013;BME280;10167;42.852;23.042;2023-02-25T06:01:28;94127.81;;;6.64;100.00
20013;BME280;10167;42.852;23.042;2023-02-25T06:03:58;94130.66;;;6.74;100.00
20013;BME280;10167;42.852;23.042;2023-02-25T06:06:29;94133.16;;;6.81;100.00
20013;BME280;10167;42.852;23.042;2023-02-25T06:08:58;94127.88;;;6.92;100.00
20013;BME280;10167;42.852;23.042;2023-02-25T06:11:30;94123.50;;;6.98;100.00
20013;BME280;10167;42.852;23.042;2023-02-25T06:13:59;94120.69;;;7.16;100.00
20013;BME280;10167;42.852;23.042;2023-02-25T06:16:30;94116.66;;;7.25;100.00
20013;BME280;10167;42.852;23.042;2023-02-25T06:19:00;94113.41;;;7.35;100.00
20013;BME280;10167;42.852;23.042;2023-02-25T06:21:29;94111.22;;;7.44;100.00
20013;BME280;10167;42.852;23.042;2023-02-25T06:23:59;94113.53;;;7.40;100.00
20013;BME280;10167;42.852;23.042;2023-02-25T06:26:33;94117.94;;;7.51;100.00
20013;BME280;10167;42.852;23.042;2023-02-25T06:29:08;94118.22;;;7.67;100.00
20013;BME280;10167;42.852;23.042;2023-02-25T06:31:37;94114.16;;;7.76;100.00
20013;BME280;10167;42.852;23.042;2023-02-25T06:34:06;94106.97;;;7.88;100.00
20013;BME280;10167;42.852;23.042;2023-02-25T06:36:35;94094.00;;;7.70;100.00
20013;BME280;10167;42.852;23.042;2023-02-25T06:39:04;94094.72;;;7.82;100.00
20013;BME280;10167;42.852;23.042;2023-02-25T06:41:36;94093.78;;;7.88;100.00
20013;BME280;10167;42.852;23.042;2023-02-25T06:44:05;94091.38;;;8.03;100.00
20013;BME280;10167;42.852;23.042;2023-02-25T06:46:34;94104.78;;;8.01;100.00
20013;BME280;10167;42.852;23.042;2023-02-25T06:49:03;94105.53;;;8.30;100.00
20013;BME280;10167;42.852;23.042;2023-02-25T06:51:32;94085.22;;;8.14;100.00
20013;BME280;10167;42.852;23.042;2023-02-25T06:54:02;94085.47;;;8.13;100.00
20013;BME280;10167;42.852;23.042;2023-02-25T06:56:32;94086.25;;;8.13;100.00
20013;BME280;10167;42.852;23.042;2023-02-25T06:59:02;94086.03;;;8.15;100.00
20013;BME280;10167;42.852;23.042;2023-02-25T07:01:31;94083.28;;;8.26;100.00
20013;BME280;10167;42.852;23.042;2023-02-25T07:04:00;94079.16;;;8.30;100.00
20013;BME280;10167;42.852;23.042;2023-02-25T07:06:30;94082.03;;;8.46;100.00
20013;BME280;10167;42.852;23.042;2023-02-25T07:08:59;94084.25;;;8.54;100.00
20013;BME280;10167;42.852;23.042;2023-02-25T07:11:29;94074.78;;;8.58;100.00
20013;BME280;10167;42.852;23.042;2023-02-25T07:14:03;94071.25;;;8.69;100.00
20013;BME280;10167;42.852;23.042;2023-02-25T07:16:33;94057.16;;;8.80;100.00
20013;BME280;10167;42.852;23.042;2023-02-25T07:19:02;94052.78;;;8.91;100.00
20013;BME280;10167;42.852;23.042;2023-02-25T07:21:31;94048.16;;;9.03;100.00
20013;BME280;10167;42.852;23.042;2023-02-25T07:24:00;94048.69;;;9.05;100.00
20013;BME280;10167;42.852;23.042;2023-02-25T07:26:29;94037.84;;;9.28;100.00
20013;BME280;10167;42.852;23.042;2023-02-25T07:28:58;94029.59;;;9.46;100.00
20013;BME280;10167;42.852;23.042;2023-02-25T07:31:29;94037.84;;;9.55;100.00
20013;BME280;10167;42.852;23.042;2023-02-25T07:33:58;94040.00;;;9.58;100.00
20013;BME280;10167;42.852;23.042;2023-02-25T07:36:30;94030.94;;;9.81;100.00
20013;BME280;10167;42.852;23.042;2023-02-25T07:39:00;94025.06;;;9.74;100.00
20013;BME280;10167;42.852;23.042;2023-02-25T07:41:30;94028.69;;;10.00;100.00
20013;BME280;10167;42.852;23.042;2023-02-25T07:44:02;94031.84;;;9.97;100.00
20013;BME280;10167;42.852;23.042;2023-02-25T07:46:33;94037.69;;;10.36;100.00
20013;BME280;10167;42.852;23.042;2023-02-25T07:49:03;94030.53;;;10.31;100.00
20013;BME280;10167;42.852;23.042;2023-02-25T07:51:32;94028.47;;;10.38;100.00
20013;BME280;10167;42.852;23.042;2023-02-25T07:54:01;94023.22;;;10.48;100.00
20013;BME280;10167;42.852;23.042;2023-02-25T07:56:30;94036.41;;;10.43;100.00
20013;BME280;10167;42.852;23.042;2023-02-25T07:58:59;94029.13;;;10.66;100.00
20013;BME280;10167;42.852;23.042;2023-02-25T08:01:30;94019.63;;;10.75;100.00
20013;BME280;10167;42.852;23.042;2023-02-25T08:04:04;94027.38;;;10.91;100.00
20013;BME280;10167;42.852;23.042;2023-02-25T08:06:38;94016.53;;;10.98;100.00
20013;BME280;10167;42.852;23.042;2023-02-25T08:09:09;94016.31;;;11.20;100.00
20013;BME280;10167;42.852;23.042;2023-02-25T08:11:39;94024.28;;;11.30;100.00
20013;BME280;10167;42.852;23.042;2023-02-25T08:14:09;94025.13;;;11.56;100.00
20013;BME280;10167;42.852;23.042;2023-02-25T08:16:38;94019.38;;;11.84;100.00
20013;BME280;10167;42.852;23.042;2023-02-25T08:19:09;94016.94;;;11.98;100.00
20013;BME280;10167;42.852;23.042;2023-02-25T08:21:38;94011.38;;;12.10;100.00
20013;BME280;10167;42.852;23.042;2023-02-25T08:24:08;94005.25;;;12.29;100.00
20013;BME280;10167;42.852;23.042;2023-02-25T08:26:37;94001.22;;;12.47;100.00
20013;BME280;10167;42.852;23.042;2023-02-25T08:29:07;93982.34;;;12.59;100.00
20013;BME280;10167;42.852;23.042;2023-02-25T08:31:36;93990.00;;;12.65;100.00
20013;BME280;10167;42.852;23.042;2023-02-25T08:34:06;93973.81;;;12.67;100.00
20013;BME280;10167;42.852;23.042;2023-02-25T08:36:37;93988.91;;;12.77;100.00
20013;BME280;10167;42.852;23.042;2023-02-25T08:39:06;93977.72;;;12.85;100.00
20013;BME280;10167;42.852;23.042;2023-02-25T08:41:35;93982.78;;;12.86;100.00
20013;BME280;10167;42.852;23.042;2023-02-25T08:44:05;93984.09;;;12.84;100.00
20013;BME280;10167;42.852;23.042;2023-02-25T08:46:36;93973.53;;;12.73;100.00
20013;BME280;10167;42.852;23.042;2023-02-25T08:49:06;93974.34;;;12.69;100.00
20013;BME280;10167;42.852;23.042;2023-02-25T08:51:37;93960.31;;;12.53;100.00
20013;BME280;10167;42.852;23.042;2023-02-25T08:54:10;93960.81;;;12.60;100.00
20013;BME280;10167;42.852;23.042;2023-02-25T08:56:40;93962.41;;;12.61;100.00
20013;BME280;10167;42.852;23.042;2023-02-25T08:59:13;93966.38;;;12.69;100.00
20013;BME280;10167;42.852;23.042;2023-02-25T09:01:42;93957.09;;;12.61;100.00
20013;BME280;10167;42.852;23.042;2023-02-25T09:04:17;93970.38;;;12.56;100.00
20013;BME280;10167;42.852;23.042;2023-02-25T09:06:48;93990.88;;;12.46;100.00
20013;BME280;10167;42.852;23.042;2023-02-25T09:09:19;93985.78;;;12.59;100.00
20013;BME280;10167;42.852;23.042;2023-02-25T09:11:48;93983.16;;;12.49;100.00
20013;BME280;10167;42.852;23.042;2023-02-25T09:14:18;93974.69;;;12.42;100.00
20013;BME280;10167;42.852;23.042;2023-02-25T09:16:47;93981.59;;;12.43;100.00
20013;BME280;10167;42.852;23.042;2023-02-25T09:19:17;93985.81;;;12.49;100.00
20013;BME280;10167;42.852;23.042;2023-02-25T09:21:48;93989.53;;;12.48;100.00
20013;BME280;10167;42.852;23.042;2023-02-25T09:24:17;93982.88;;;12.56;100.00
20013;BME280;10167;42.852;23.042;2023-02-25T09:26:47;93990.84;;;12.56;100.00
20013;BME280;10167;42.852;23.042;2023-02-25T09:29:16;93983.66;;;12.61;100.00
20013;BME280;10167;42.852;23.042;2023-02-25T09:31:45;93986.06;;;12.63;100.00
20013;BME280;10167;42.852;23.042;2023-02-25T09:34:14;93982.03;;;12.65;100.00
20013;BME280;10167;42.852;23.042;2023-02-25T09:36:44;93978.03;;;12.73;100.00
20013;BME280;10167;42.852;23.042;2023-02-25T09:39:15;93982.78;;;12.81;100.00
20013;BME280;10167;42.852;23.042;2023-02-25T09:41:48;93975.59;;;12.82;100.00
20013;BME280;10167;42.852;23.042;2023-02-25T09:44:23;93966.00;;;12.91;100.00
20013;BME280;10167;42.852;23.042;2023-02-25T09:47:00;93946.59;;;12.95;100.00
20013;BME280;10167;42.852;23.042;2023-02-25T09:49:33;93951.84;;;13.05;100.00
20013;BME280;10167;42.852;23.042;2023-02-25T09:52:10;93941.22;;;13.05;100.00
20013;BME280;10167;42.852;23.042;2023-02-25T09:54:44;93939.63;;;12.99;100.00
20013;BME280;10167;42.852;23.042;2023-02-25T09:57:17;93933.03;;;12.97;100.00
20013;BME280;10167;42.852;23.042;2023-02-25T09:59:48;93926.66;;;12.93;100.00
20013;BME280;10167;42.852;23.042;2023-02-25T10:02:24;93929.31;;;12.98;100.00
20013;BME280;10167;42.852;23.042;2023-02-25T10:05:06;93923.50;;;12.91;100.00
20013;BME280;10167;42.852;23.042;2023-02-25T10:07:55;93918.69;;;12.98;100.00
20013;BME280;10167;42.852;23.042;2023-02-25T10:10:34;93912.53;;;13.02;100.00
20013;BME280;10167;42.852;23.042;2023-02-25T10:13:15;93912.53;;;13.02;100.00
20013;BME280;10167;42.852;23.042;2023-02-25T10:15:54;93910.41;;;13.04;100.00
20013;BME280;10167;42.852;23.042;2023-02-25T10:18:39;93908.22;;;13.12;100.00
20013;BME280;10167;42.852;23.042;2023-02-25T10:21:22;93903.16;;;13.20;100.00
20013;BME280;10167;42.852;23.042;2023-02-25T10:24:07;93903.16;;;13.10;100.00
20013;BME280;10167;42.852;23.042;2023-02-25T10:26:42;93894.66;;;13.13;100.00
20013;BME280;10167;42.852;23.042;2023-02-25T10:29:24;93889.88;;;13.15;100.00
20013;BME280;10167;42.852;23.042;2023-02-25T10:31:58;93890.34;;;13.22;100.00
20013;BME280;10167;42.852;23.042;2023-02-25T10:34:28;93886.91;;;13.22;99.71
20013;BME280;10167;42.852;23.042;2023-02-25T10:36:59;93883.44;;;13.26;100.00
20013;BME280;10167;42.852;23.042;2023-02-25T10:39:28;93877.06;;;13.22;100.00
20013;BME280;10167;42.852;23.042;2023-02-25T10:41:59;93863.22;;;13.25;100.00
20013;BME280;10167;42.852;23.042;2023-02-25T10:44:28;93872.28;;;13.24;99.99
20013;BME280;10167;42.852;23.042;2023-02-25T10:47:00;93881.22;;;13.33;99.82
20013;BME280;10167;42.852;23.042;2023-02-25T10:49:31;93882.03;;;13.34;100.00
20013;BME280;10167;42.852;23.042;2023-02-25T10:52:09;93870.59;;;13.33;99.93
20013;BME280;10167;42.852;23.042;2023-02-25T10:54:46;93851.44;;;13.36;100.00
20013;BME280;10167;42.852;23.042;2023-02-25T10:57:23;93856.47;;;13.38;100.00
20013;BME280;10167;42.852;23.042;2023-02-25T10:59:59;93851.59;;;13.50;99.61
20013;BME280;10167;42.852;23.042;2023-02-25T11:02:34;93859.22;;;13.57;99.82
20013;BME280;10167;42.852;23.042;2023-02-25T11:05:05;93861.00;;;13.66;99.56
20013;BME280;10167;42.852;23.042;2023-02-25T11:07:39;93853.81;;;13.67;99.27
20013;BME280;10167;42.852;23.042;2023-02-25T11:10:14;93851.34;;;13.75;99.01
20013;BME280;10167;42.852;23.042;2023-02-25T11:12:47;93847.03;;;13.79;98.53
20013;BME280;10167;42.852;23.042;2023-02-25T11:15:30;93844.00;;;13.91;98.06
20013;BME280;10167;42.852;23.042;2023-02-25T11:18:18;93837.72;;;14.06;97.81
20013;BME280;10167;42.852;23.042;2023-02-25T11:20:52;93834.03;;;14.02;97.83
20013;BME280;10167;42.852;23.042;2023-02-25T11:23:26;93829.47;;;14.07;97.11
20013;BME280;10167;42.852;23.042;2023-02-25T11:25:56;93826.25;;;14.29;97.03
20013;BME280;10167;42.852;23.042;2023-02-25T11:28:30;93831.22;;;14.41;96.30
20013;BME280;10167;42.852;23.042;2023-02-25T11:31:07;93832.81;;;14.42;96.09
20013;BME280;10167;42.852;23.042;2023-02-25T11:33:41;93836.19;;;14.47;96.19
20013;BME280;10167;42.852;23.042;2023-02-25T11:36:11;93828.97;;;14.48;95.79
20013;BME280;10167;42.852;23.042;2023-02-25T11:38:41;93817.75;;;14.51;95.91
20013;BME280;10167;42.852;23.042;2023-02-25T11:41:15;93816.16;;;14.50;96.75
20013;BME280;10167;42.852;23.042;2023-02-25T11:43:50;93809.69;;;14.56;95.43
20013;BME280;10167;42.852;23.042;2023-02-25T11:46:22;93811.50;;;14.61;96.18
20013;BME280;10167;42.852;23.042;2023-02-25T11:48:58;93804.44;;;14.70;95.54
20013;BME280;10167;42.852;23.042;2023-02-25T11:51:34;93802.56;;;14.70;95.53
20013;BME280;10167;42.852;23.042;2023-02-25T11:54:19;93804.44;;;14.70;95.15
20013;BME280;10167;42.852;23.042;2023-02-25T11:56:54;93802.16;;;14.63;95.82
20013;BME280;10167;42.852;23.042;2023-02-25T11:59:32;93799.69;;;14.67;95.52
20013;BME280;10167;42.852;23.042;2023-02-25T12:02:20;93799.91;;;14.70;95.65
20013;BME280;10167;42.852;23.042;2023-02-25T12:05:20;93789.75;;;14.72;95.91
20013;BME280;10167;42.852;23.042;2023-02-25T12:08:02;93787.59;;;14.74;95.97
20013;BME280;10167;42.852;23.042;2023-02-25T12:10:59;93784.84;;;14.79;95.53
20013;BME280;10167;42.852;23.042;2023-02-25T12:23:13;93766.75;;;14.95;94.12
20013;BME280;10167;42.852;23.042;2023-02-25T12:25:58;93765.66;;;14.96;93.97
20013;BME280;10167;42.852;23.042;2023-02-25T12:31:46;93758.00;;;15.08;93.60
20013;BME280;10167;42.852;23.042;2023-02-25T12:34:38;93748.84;;;15.14;92.98
20013;BME280;10167;42.852;23.042;2023-02-25T12:37:29;93745.38;;;15.14;93.36
20013;BME280;10167;42.852;23.042;2023-02-25T12:40:12;93734.13;;;15.17;92.99
20013;BME280;10167;42.852;23.042;2023-02-25T12:42:55;93745.81;;;15.21;93.12
20013;BME280;10167;42.852;23.042;2023-02-25T12:45:36;93742.41;;;15.15;92.85
20013;BME280;10167;42.852;23.042;2023-02-25T12:54:35;93739.75;;;15.15;92.38
20013;BME280;10167;42.852;23.042;2023-02-25T12:57:25;93745.38;;;15.14;92.16
20013;BME280;10167;42.852;23.042;2023-02-25T13:00:16;93738.66;;;15.16;92.74
20013;BME280;10167;42.852;23.042;2023-02-25T13:03:02;93734.13;;;15.17;92.79
20013;BME280;10167;42.852;23.042;2023-02-25T13:05:52;93728.22;;;15.20;93.01
20013;BME280;10167;42.852;23.042;2023-02-25T13:08:34;93736.13;;;15.25;92.08
20013;BME280;10167;42.852;23.042;2023-02-25T13:11:17;93712.72;;;15.22;92.21
20013;BME280;10167;42.852;23.042;2023-02-25T13:17:15;93704.72;;;15.22;92.57
20013;BME280;10167;42.852;23.042;2023-02-25T13:20:31;93707.88;;;15.24;92.05
20013;BME280;10167;42.852;23.042;2023-02-25T13:23:17;93709.44;;;15.25;92.12
20013;BME280;10167;42.852;23.042;2023-02-25T13:26:04;93702.13;;;15.17;92.20
20013;BME280;10167;42.852;23.042;2023-02-25T13:29:10;93702.63;;;15.19;91.57
20013;BME280;10167;42.852;23.042;2023-02-25T13:31:47;93709.63;;;15.15;91.27
20013;BME280;10167;42.852;23.042;2023-02-25T13:34:27;93715.56;;;15.12;92.03
20013;BME280;10167;42.852;23.042;2023-02-25T13:37:10;93699.16;;;15.05;92.19
20013;BME280;10167;42.852;23.042;2023-02-25T13:40:00;93696.09;;;14.98;92.38
20013;BME280;10167;42.852;23.042;2023-02-25T13:42:45;93707.94;;;15.05;92.30